createdAt,value
2018-07-03T00:00:10.974Z,100938.15
2018-07-03T00:05:14.885Z,100936.50
2018-07-03T00:10:18.425Z,100945.53
2018-07-03T00:15:22.000Z,100940.84
2018-07-03T00:20:25.545Z,100940.37
2018-07-03T00:25:29.170Z,100931.08
2018-07-03T00:30:35.277Z,100932.00
2018-07-03T00:35:38.884Z,100936.44
2018-07-03T00:40:42.381Z,100930.38
2018-07-03T00:45:46.926Z,100935.22
2018-07-03T00:50:50.929Z,100934.58
2018-07-03T00:55:54.577Z,100939.02
2018-07-03T01:00:58.658Z,100936.55
2018-07-03T01:06:02.220Z,100942.81
2018-07-03T01:11:05.762Z,100935.88
2018-07-03T01:16:09.307Z,100935.27
2018-07-03T01:21:12.927Z,100931.83
2018-07-03T01:26:17.499Z,100935.27
2018-07-03T01:31:20.997Z,100929.27
2018-07-03T01:36:24.669Z,100925.56
2018-07-03T01:41:28.311Z,100927.16
2018-07-03T01:46:31.972Z,100924.39
2018-07-03T01:51:35.527Z,100921.06
2018-07-03T01:56:39.082Z,100908.86
2018-07-03T02:01:43.008Z,100905.02
2018-07-03T02:06:46.484Z,100905.14
2018-07-03T02:11:50.265Z,100900.89
2018-07-03T02:16:53.770Z,100890.80
2018-07-03T02:21:58.369Z,100894.58
2018-07-03T02:27:02.728Z,100888.59
2018-07-03T02:32:06.339Z,100889.16
2018-07-03T02:37:10.026Z,100885.40
2018-07-03T02:42:13.636Z,100889.73
2018-07-03T02:47:17.195Z,100885.48
2018-07-03T02:52:20.803Z,100890.38
2018-07-03T02:57:24.644Z,100887.31
2018-07-03T03:02:29.296Z,100888.44
2018-07-03T03:07:32.833Z,100894.27
2018-07-03T03:12:36.434Z,100894.01
2018-07-03T03:17:40.006Z,100895.02
2018-07-03T03:22:43.494Z,100898.32
2018-07-03T03:27:47.147Z,100901.35
2018-07-03T03:32:50.968Z,100890.92
2018-07-03T03:37:55.441Z,100893.47
2018-07-03T03:42:58.950Z,100899.11
2018-07-03T03:48:02.495Z,100901.70
2018-07-03T03:53:06.041Z,100895.95
2018-07-03T03:58:09.726Z,100895.96
2018-07-03T04:03:13.319Z,100891.22
2018-07-03T04:08:16.956Z,100893.98
2018-07-03T04:13:20.944Z,100895.94
2018-07-03T04:18:31.984Z,100898.24
2018-07-03T04:23:36.697Z,100896.02
2018-07-03T04:28:40.666Z,100893.17
2018-07-03T04:33:44.255Z,100893.82
2018-07-03T04:38:47.911Z,100891.45
2018-07-03T04:43:51.957Z,100898.13
2018-07-03T04:48:55.564Z,100903.20
2018-07-03T04:53:59.281Z,100911.96
2018-07-03T04:59:02.844Z,100907.16
2018-07-03T05:04:06.403Z,100909.61
2018-07-03T05:09:11.216Z,100907.64
2018-07-03T05:14:15.524Z,100918.66
2018-07-03T05:19:19.260Z,100922.43
2018-07-03T05:24:22.948Z,100926.31
2018-07-03T05:29:26.679Z,100931.34
2018-07-03T05:34:30.308Z,100933.55
2018-07-03T05:39:34.580Z,100939.63
2018-07-03T05:44:38.224Z,100941.03
2018-07-03T05:49:42.747Z,100938.72
2018-07-03T05:54:46.312Z,100944.64
2018-07-03T05:59:49.858Z,100943.53
2018-07-03T06:04:53.421Z,100947.43
2018-07-03T06:09:57.732Z,100948.19
2018-07-03T06:15:01.335Z,100954.09
2018-07-03T06:20:04.929Z,100956.84
2018-07-03T06:25:08.463Z,100948.66
2018-07-03T06:30:14.756Z,100949.13
2018-07-03T06:35:18.358Z,100952.45
2018-07-03T06:40:22.146Z,100948.91
2018-07-03T06:45:26.071Z,100946.44
2018-07-03T06:50:29.603Z,100939.73
2018-07-03T06:55:34.885Z,100943.92
2018-07-03T07:00:38.508Z,100947.03
2018-07-03T07:05:42.066Z,100940.39
2018-07-03T07:10:45.921Z,100935.88
2018-07-03T07:15:50.009Z,100931.05
2018-07-03T07:20:53.862Z,100929.53
2018-07-03T07:25:57.463Z,100928.80
2018-07-03T07:31:01.092Z,100929.22
2018-07-03T07:36:05.063Z,100932.66
2018-07-03T07:41:08.774Z,100925.18
2018-07-03T07:46:12.929Z,100933.03
2018-07-03T07:51:16.940Z,100934.62
2018-07-03T07:56:20.428Z,100925.27
2018-07-03T08:01:24.117Z,100932.73
2018-07-03T08:06:27.645Z,100932.48
2018-07-03T08:11:31.196Z,100922.39
2018-07-03T08:16:34.734Z,100920.58
2018-07-03T08:21:38.275Z,100922.19
2018-07-03T08:26:41.811Z,100928.66
2018-07-03T08:31:45.334Z,100922.56
2018-07-03T08:36:49.642Z,100922.17
2018-07-03T08:41:53.410Z,100918.59
2018-07-03T08:46:57.048Z,100913.48
2018-07-03T08:52:01.112Z,100908.92
2018-07-03T08:57:04.703Z,100911.57
2018-07-03T09:02:08.311Z,100910.58
2018-07-03T09:07:11.941Z,100909.52
2018-07-03T09:12:15.992Z,100911.67
2018-07-03T09:17:24.837Z,100910.42
2018-07-03T09:22:28.423Z,100905.14
2018-07-03T09:27:32.945Z,100896.16
2018-07-03T09:32:36.480Z,100900.27
2018-07-03T09:37:40.045Z,100892.58
2018-07-03T09:42:43.591Z,100897.19
2018-07-03T09:47:47.919Z,100889.50
2018-07-03T09:52:51.445Z,100883.00
2018-07-03T09:57:55.329Z,100885.19
2018-07-03T10:02:58.881Z,100874.45
2018-07-03T10:08:02.367Z,100871.21
2018-07-03T10:13:07.862Z,100870.34
2018-07-03T10:18:11.363Z,100869.91
2018-07-03T10:23:15.060Z,100871.56
2018-07-03T10:28:18.523Z,100871.70
2018-07-03T10:33:23.062Z,100871.90
2018-07-03T10:38:26.534Z,100871.05
2018-07-03T10:43:30.362Z,100857.00
2018-07-03T10:48:33.962Z,100863.57
2018-07-03T10:53:37.722Z,100848.69
2018-07-03T10:58:41.294Z,100850.62
2018-07-03T11:03:44.828Z,100842.61
2018-07-03T11:08:48.283Z,100843.89
2018-07-03T11:13:51.815Z,100836.30
2018-07-03T11:18:55.277Z,100831.08
2018-07-03T11:23:59.171Z,100832.41
2018-07-03T11:29:02.773Z,100833.63
2018-07-03T11:34:07.173Z,100828.53
2018-07-03T11:39:10.817Z,100826.30
2018-07-03T11:44:14.649Z,100815.81
2018-07-03T11:49:18.154Z,100815.34
2018-07-03T11:54:23.091Z,100808.78
2018-07-03T11:59:26.726Z,100807.45
2018-07-03T12:04:30.479Z,100813.86
2018-07-03T12:09:34.808Z,100806.27
2018-07-03T12:14:38.536Z,100808.59
2018-07-03T12:19:44.700Z,100792.84
2018-07-03T12:24:48.469Z,100795.24
2018-07-03T12:29:52.148Z,100785.84
2018-07-03T12:34:56.593Z,100785.14
2018-07-03T12:40:00.588Z,100784.72
2018-07-03T12:45:04.805Z,100783.34
2018-07-03T12:50:08.396Z,100783.06
2018-07-03T12:55:12.109Z,100781.94
2018-07-03T13:00:21.853Z,100770.47
2018-07-03T13:05:25.584Z,100769.45
2018-07-03T13:10:29.319Z,100773.72
2018-07-03T13:15:32.892Z,100763.66
2018-07-03T13:20:37.365Z,100751.72
2018-07-03T13:25:40.916Z,100759.13
2018-07-03T13:30:44.440Z,100751.41
2018-07-03T13:35:48.004Z,100745.16
2018-07-03T13:40:52.097Z,100749.42
2018-07-03T13:45:55.745Z,100754.41
2018-07-03T13:50:59.201Z,100740.38
2018-07-03T13:56:03.081Z,100741.58
2018-07-03T14:01:06.890Z,100734.56
2018-07-03T14:06:10.646Z,100733.78
2018-07-03T14:11:14.174Z,100731.91
2018-07-03T14:16:17.748Z,100728.23
2018-07-03T14:21:21.265Z,100730.83
2018-07-03T14:26:24.796Z,100718.02
2018-07-03T14:31:28.446Z,100722.67
2018-07-03T14:36:32.983Z,100718.59
2018-07-03T14:41:36.484Z,100719.30
2018-07-03T14:46:40.122Z,100715.66
2018-07-03T14:51:43.666Z,100714.13
2018-07-03T14:56:47.209Z,100705.14
2018-07-03T15:01:50.741Z,100697.48
2018-07-03T15:06:54.389Z,100691.62
2018-07-03T15:11:58.042Z,100686.98
2018-07-03T15:17:01.659Z,100681.32
2018-07-03T15:22:05.297Z,100681.77
2018-07-03T15:27:08.963Z,100685.19
2018-07-03T15:32:12.502Z,100671.47
2018-07-03T15:37:16.024Z,100677.59
2018-07-03T15:42:19.772Z,100671.53
2018-07-03T15:47:23.301Z,100669.48
2018-07-03T15:52:26.918Z,100660.83
2018-07-03T15:57:30.503Z,100662.27
2018-07-03T16:02:34.196Z,100658.44
2018-07-03T16:07:49.377Z,100661.23
2018-07-03T16:12:52.904Z,100654.56
2018-07-03T16:17:56.641Z,100653.27
2018-07-03T16:23:00.207Z,100646.68
2018-07-03T16:28:03.899Z,100642.72
2018-07-03T16:33:07.400Z,100646.45
2018-07-03T16:38:10.973Z,100640.23
2018-07-03T16:43:14.435Z,100638.42
2018-07-03T16:48:19.153Z,100626.22
2018-07-03T16:53:22.799Z,100632.66
2018-07-03T16:58:27.364Z,100621.95
2018-07-03T17:03:31.862Z,100623.30
2018-07-03T17:08:36.601Z,100622.55
2018-07-03T17:13:40.506Z,100621.71
2018-07-03T17:18:49.315Z,100617.91
2018-07-03T17:23:52.859Z,100624.06
2018-07-03T17:28:56.437Z,100619.75
2018-07-03T17:33:59.926Z,100625.83
2018-07-03T17:39:10.589Z,100621.55
2018-07-03T17:44:25.756Z,100620.37
2018-07-03T17:49:29.311Z,100630.45
2018-07-03T17:54:32.927Z,100627.47
2018-07-03T17:59:36.453Z,100628.25
2018-07-03T18:04:40.020Z,100621.95
2018-07-03T18:09:43.610Z,100626.95
2018-07-03T18:14:47.938Z,100623.58
2018-07-03T18:19:51.537Z,100625.62
2018-07-03T18:24:55.066Z,100628.67
2018-07-03T18:29:58.807Z,100620.86
2018-07-03T18:35:03.056Z,100614.62
2018-07-03T18:40:06.906Z,100611.92
2018-07-03T18:45:10.420Z,100611.23
2018-07-03T18:50:14.141Z,100611.09
2018-07-03T18:55:17.662Z,100607.38
2018-07-03T19:00:25.652Z,100613.57
2018-07-03T19:05:29.273Z,100625.15
2018-07-03T19:10:32.860Z,100626.05
2018-07-03T19:15:36.531Z,100635.62
2018-07-03T19:20:41.119Z,100643.69
2018-07-03T19:25:44.685Z,100650.57
2018-07-03T19:30:48.206Z,100648.13
2018-07-03T19:35:51.923Z,100651.47
2018-07-03T19:40:56.386Z,100658.48
2018-07-03T19:46:01.034Z,100658.78
2018-07-03T19:51:04.855Z,100668.67
2018-07-03T19:56:08.720Z,100666.97
2018-07-03T20:01:12.474Z,100670.91
2018-07-03T20:06:16.163Z,100674.14
2018-07-03T20:11:20.207Z,100686.12
2018-07-03T20:16:23.833Z,100702.41
2018-07-03T20:21:27.329Z,100709.21
2018-07-03T20:26:31.971Z,100707.75
2018-07-03T20:31:35.514Z,100720.97
2018-07-03T20:36:39.064Z,100714.75
2018-07-03T20:41:42.536Z,100716.85
2018-07-03T20:46:46.117Z,100717.42
2018-07-03T20:51:49.684Z,100710.53
2018-07-03T20:56:53.645Z,100712.80
2018-07-03T21:01:57.166Z,100705.89
2018-07-03T21:07:01.309Z,100711.48
2018-07-03T21:12:05.891Z,100700.88
2018-07-03T21:17:10.467Z,100709.53
2018-07-03T21:22:14.385Z,100713.44
2018-07-03T21:27:18.044Z,100714.08
2018-07-03T21:32:21.654Z,100717.15
2018-07-03T21:37:26.069Z,100730.53
2018-07-03T21:42:29.773Z,100728.91
2018-07-03T21:47:33.650Z,100729.91
2018-07-03T21:52:37.119Z,100724.80
2018-07-03T21:57:40.816Z,100726.05
2018-07-03T22:02:44.369Z,100732.67
2018-07-03T22:07:47.890Z,100733.44
2018-07-03T22:12:51.473Z,100732.46
2018-07-03T22:17:55.110Z,100726.61
2018-07-03T22:22:58.590Z,100720.89
2018-07-03T22:28:02.640Z,100718.83
2018-07-03T22:33:06.323Z,100722.70
2018-07-03T22:38:09.856Z,100725.24
2018-07-03T22:43:13.641Z,100716.52
2018-07-03T22:48:18.083Z,100718.00
2018-07-03T22:53:21.605Z,100714.79
2018-07-03T22:58:25.195Z,100711.97
2018-07-03T23:03:29.184Z,100703.74
2018-07-03T23:08:33.037Z,100704.52
2018-07-03T23:13:36.539Z,100701.17
2018-07-03T23:18:40.284Z,100706.27
2018-07-03T23:23:43.790Z,100706.34
2018-07-03T23:28:47.527Z,100716.13
2018-07-03T23:33:51.029Z,100709.33
2018-07-03T23:38:55.576Z,100715.26
2018-07-03T23:43:59.206Z,100714.11
2018-07-03T23:49:14.138Z,100721.09
2018-07-03T23:54:28.874Z,100718.16
2018-07-03T23:59:43.790Z,100722.66
